Thursday, July 19, 2018, 1:22 PM EDT
Back to Local

KNAK, Annapolis Us Naval Academy

Location: Annapolis, MD, United States Lat: 38.983
Local Time: 1:22 PM EDT (17:22 GMT) Lon: -76.483
Time Zone: US/Eastern Elev: 6 ft

Show me the last for .
Show Coded

Time T Td Feel RH Dir Speed Gust Alt SLP Vis Weather Sky Remarks
2018-07-19 12:54 83 54 - 37 80° 7 - 30.10 30.11 10 CLR None
2018-07-19 11:54 82 58 82 43 70° 8 - 30.11 30.11 10 CLR None
2018-07-19 10:54 81 56 81 42 Variable 7 - 30.11 30.11 10 CLR None
2018-07-19 09:54 80 56 80 43 60° 8 - 30.10 30.11 10 CLR None
2018-07-19 08:54 78 60 80 54 40° 10 - 30.09 30.10 10 CLR None
2018-07-19 07:54 77 56 78 48 50° 7 - 30.08 30.08 10 CLR 6-hr Min Temp (8am): 73.9°F
6-hr Max Temp (8am): 77.0°F
2018-07-19 06:54 76 60 78 58 10° 5 - 30.06 30.06 10 SCT075 None
2018-07-19 05:54 74 60 77 61 20° 3 - 30.05 30.05 10 FEW080 None
2018-07-19 04:54 75 61 78 61 30° 5 - 30.03 30.04 10 CLR None
2018-07-19 03:54 76 61 78 59 40° 7 - 30.03 30.03 10 CLR None
2018-07-19 02:54 77 60 79 55 30° 6 - 30.02 30.02 10 CLR None
2018-07-19 01:54 74 69 78 84 350° 5 - 30.01 30.01 10 CLR 6-hr Min Temp (2am): 73.0°F
6-hr Max Temp (2am): 82.9°F
2018-07-19 00:54 75 70 79 84 310° 3 - 29.99 30.00 10 CLR 24-hr Min Temp (1am): 73.9°F
24-hr Max Temp (1am): 87.1°F
2018-07-18 23:54 76 71 80 84 320° 3 - 29.98 29.98 10 CLR None
2018-07-18 22:54 77 69 80 76 310° 3 - 29.98 29.98 10 CLR None
2018-07-18 21:54 78 69 82 73 - Calm - 29.97 29.97 10 CLR None
2018-07-18 20:54 80 68 83 66 - Calm - 29.95 29.96 10 SCT070 SCT080 None
2018-07-18 19:54 83 64 85 53 20° 3 - 29.94 29.94 10 CLR 6-hr Min Temp (8pm): 82.9°F
6-hr Max Temp (8pm): 87.1°F
2018-07-18 18:54 86 61 87 43 Variable 6 - 29.92 29.93 10 CLR None
2018-07-18 17:54 87 59 - 38 70° 6 - 29.92 29.92 10 CLR None
2018-07-18 16:54 87 58 - 37 60° 9 - 29.92 29.92 10 CLR None
2018-07-18 15:54 86 59 86 40 40° 7 - 29.93 29.93 10 CLR None
2018-07-18 14:54 87 58 - 37 - - - 29.93 29.93 10 FEW070 None
2018-07-18 13:54 85 56 - 37 360° 13 18 29.93 29.93 10 CLR 6-hr Min Temp (2pm): 75.9°F
6-hr Max Temp (2pm): 86.0°F

Support USWX by starting your Amazon purchase here.